Time;durP1;ratioP1;P1;durP2;ratioP2;P2;SDS_P1;SDS_P2;PMS_P1;PMS_P2;Temp;Humidity;BMP_temperature;BMP_pressure;BME280_temperature;BME280_humidity;BME280_pressure;Samples;Min_cycle;Max_cycle;Signal;HPM_P1;HPM_P2
2022/03/01 00:01:43;;;;;;;7.82;4.15;;;;;;;2.68;50.30;100721.41;4454572;32;35781;-77
2022/03/01 00:04:12;;;;;;;6.62;4.18;;;;;;;2.47;50.70;100717.12;4454126;32;34417;-76
2022/03/01 00:06:40;;;;;;;6.03;3.47;;;;;;;2.54;50.55;100718.28;4459591;32;33424;-77
2022/03/01 00:09:08;;;;;;;8.30;3.78;;;;;;;2.32;51.42;100725.84;4470399;32;34834;-76
2022/03/01 00:11:36;;;;;;;7.03;3.78;;;;;;;2.34;51.08;100729.34;4464200;32;34672;-76
2022/03/01 00:14:05;;;;;;;6.82;3.90;;;;;;;2.33;51.16;100727.56;4454724;32;34445;-77
2022/03/01 00:16:33;;;;;;;7.53;4.22;;;;;;;2.64;50.79;100719.53;4454507;32;33522;-76
2022/03/01 00:19:02;;;;;;;5.68;3.72;;;;;;;2.61;50.88;100719.41;4454986;32;33788;-77
2022/03/01 00:21:32;;;;;;;7.65;4.22;;;;;;;2.80;49.94;100721.94;4454253;32;35261;-76
2022/03/01 00:24:00;;;;;;;8.05;3.90;;;;;;;2.77;50.24;100721.84;4441110;32;34395;-76
2022/03/01 00:26:28;;;;;;;7.12;4.15;;;;;;;3.11;49.42;100718.09;4454066;32;33530;-77
2022/03/01 00:28:56;;;;;;;8.10;4.28;;;;;;;2.72;50.39;100718.19;4454703;32;34063;-78
2022/03/01 00:31:24;;;;;;;8.93;3.95;;;;;;;3.12;49.36;100708.69;4455930;32;35780;-79
2022/03/01 00:33:52;;;;;;;8.52;4.20;;;;;;;2.72;50.00;100718.19;4454752;32;35380;-77
2022/03/01 00:36:20;;;;;;;7.10;4.20;;;;;;;2.42;51.01;100720.31;4453434;32;33593;-77
2022/03/01 00:38:48;;;;;;;7.05;3.50;;;;;;;2.74;49.88;100716.56;4454487;32;33821;-86
2022/03/01 00:41:16;;;;;;;7.85;4.12;;;;;;;2.76;49.67;100714.06;4453965;32;35023;-76
2022/03/01 00:43:44;;;;;;;6.87;4.10;;;;;;;2.75;49.81;100707.13;4470069;32;34479;-76
2022/03/01 00:46:12;;;;;;;6.07;4.05;;;;;;;2.64;50.33;100704.09;4468128;32;34503;-76
2022/03/01 00:48:40;;;;;;;6.37;3.83;;;;;;;2.22;51.15;100710.00;4454471;32;34029;-76
2022/03/01 00:51:08;;;;;;;6.40;4.30;;;;;;;2.47;50.85;100699.13;4454198;32;35041;-76
2022/03/01 00:53:36;;;;;;;7.30;4.50;;;;;;;2.20;51.09;100706.47;4469839;32;34462;-76
2022/03/01 00:56:05;;;;;;;6.55;3.87;;;;;;;2.34;50.83;100709.66;4468687;32;33376;-76
2022/03/01 00:58:33;;;;;;;6.45;4.03;;;;;;;1.91;52.35;100712.88;4454486;32;34746;-77
2022/03/01 01:01:01;;;;;;;5.60;3.67;;;;;;;2.31;50.97;100704.38;4453985;32;35929;-76
2022/03/01 01:03:30;;;;;;;5.43;3.17;;;;;;;2.20;51.17;100700.47;4454093;32;35343;-77
2022/03/01 01:05:58;;;;;;;7.10;4.25;;;;;;;2.20;51.17;100705.59;4440481;32;33573;-76
2022/03/01 01:08:27;;;;;;;7.90;4.47;;;;;;;1.93;52.15;100703.53;4438173;32;34754;-77
2022/03/01 01:10:55;;;;;;;8.20;4.22;;;;;;;2.25;51.00;100699.84;4427072;32;34035;-76
2022/03/01 01:13:23;;;;;;;5.57;3.50;;;;;;;1.87;52.54;100698.09;4451014;32;34415;-76
2022/03/01 01:15:51;;;;;;;7.28;4.20;;;;;;;2.33;50.96;100697.63;4454154;32;33436;-76
2022/03/01 01:18:19;;;;;;;6.65;4.30;;;;;;;2.00;51.62;100695.31;4439060;32;34127;-76
2022/03/01 01:20:47;;;;;;;9.30;4.18;;;;;;;2.42;50.72;100692.91;4454003;32;35132;-77
2022/03/01 01:23:15;;;;;;;5.80;3.40;;;;;;;2.14;51.53;100697.63;4466589;32;34576;-77
2022/03/01 01:25:44;;;;;;;5.72;3.65;;;;;;;2.21;51.38;100697.09;4458306;32;34202;-76
2022/03/01 01:28:14;;;;;;;7.68;4.22;;;;;;;1.55;52.63;100697.47;4466376;32;33161;-77
2022/03/01 01:30:42;;;;;;;7.93;3.72;;;;;;;1.61;53.01;100697.78;4469421;32;35079;-76
2022/03/01 01:33:10;;;;;;;10.30;4.85;;;;;;;1.63;53.44;100703.00;4444994;32;34613;-76
2022/03/01 01:35:38;;;;;;;9.20;4.62;;;;;;;1.87;52.39;100701.56;4453634;32;34465;-76
2022/03/01 01:38:06;;;;;;;7.55;4.00;;;;;;;2.14;51.19;100700.19;4453237;32;33885;-76
2022/03/01 01:40:34;;;;;;;7.15;3.83;;;;;;;2.02;51.55;100703.94;4440430;32;35763;-85
2022/03/01 01:43:03;;;;;;;7.95;4.62;;;;;;;1.84;52.16;100703.12;4450464;32;34852;-79
2022/03/01 01:45:32;;;;;;;7.28;4.18;;;;;;;2.21;51.05;100704.81;4440440;32;33429;-76
2022/03/01 01:48:01;;;;;;;6.68;3.80;;;;;;;1.93;51.56;100703.53;4464015;32;34195;-83
2022/03/01 01:50:32;;;;;;;4.97;3.12;;;;;;;2.38;50.76;100701.28;4469186;32;35962;-77
2022/03/01 01:53:00;;;;;;;5.50;3.50;;;;;;;1.89;51.56;100705.09;4454835;32;34372;-77
2022/03/01 01:55:28;;;;;;;6.55;4.50;;;;;;;2.12;51.04;100692.41;4471485;32;33439;-77
2022/03/01 01:57:58;;;;;;;10.45;4.25;;;;;;;1.98;51.40;100694.34;4466386;32;33808;-76
2022/03/01 02:00:27;;;;;;;7.20;3.87;;;;;;;2.08;51.30;100693.06;4441022;32;35832;-76
2022/03/01 02:02:56;;;;;;;7.18;3.72;;;;;;;2.16;51.07;100696.00;4451616;32;34540;-76
2022/03/01 02:05:26;;;;;;;8.35;4.15;;;;;;;1.50;52.39;100693.81;4457515;32;33639;-76
2022/03/01 02:07:55;;;;;;;9.60;4.30;;;;;;;1.77;51.77;100693.38;4469896;32;34622;-76
2022/03/01 02:10:27;;;;;;;5.57;3.83;;;;;;;1.04;53.84;100694.16;4457868;32;35014;-76
2022/03/01 02:12:56;;;;;;;6.72;4.43;;;;;;;1.51;52.92;100688.75;4445723;32;33921;-76
2022/03/01 02:15:24;;;;;;;7.55;4.07;;;;;;;1.63;52.14;100695.28;4441682;32;33543;-76
2022/03/01 02:17:53;;;;;;;5.72;3.65;;;;;;;0.94;53.96;100688.56;4464626;32;33904;-76
2022/03/01 02:20:23;;;;;;;7.05;3.75;;;;;;;1.16;54.03;100689.62;4457159;32;35170;-76
2022/03/01 02:22:55;;;;;;;7.35;4.20;;;;;;;0.48;55.47;100683.69;4456090;32;34307;-76
2022/03/01 02:25:24;;;;;;;7.78;4.10;;;;;;;1.59;52.99;100683.09;4457283;32;33554;-76
2022/03/01 02:27:52;;;;;;;7.62;3.65;;;;;;;1.99;51.60;100683.25;4460383;32;33975;-76
2022/03/01 02:30:20;;;;;;;7.97;3.78;;;;;;;1.28;53.21;100685.09;4455507;32;35141;-76
2022/03/01 02:32:49;;;;;;;6.93;3.33;;;;;;;1.24;53.06;100675.50;4457484;32;35346;-76
2022/03/01 02:35:16;;;;;;;5.43;3.17;;;;;;;1.33;53.25;100682.75;4455425;32;34200;-76
2022/03/01 02:37:45;;;;;;;8.07;4.15;;;;;;;1.63;51.83;100685.03;4428283;32;33831;-76
2022/03/01 02:40:13;;;;;;;7.85;3.70;;;;;;;1.40;52.46;100682.25;4441516;32;35737;-76
2022/03/01 02:42:44;;;;;;;6.75;3.70;;;;;;;1.63;51.98;100678.19;4435262;32;33788;-76
2022/03/01 02:45:15;;;;;;;7.62;4.18;;;;;;;0.74;54.13;100681.56;4444318;32;34352;-76
2022/03/01 02:47:43;;;;;;;7.97;3.87;;;;;;;1.26;53.58;100679.00;4461509;32;33989;-76
2022/03/01 02:50:12;;;;;;;6.70;3.90;;;;;;;1.35;53.35;100677.72;4456961;32;34759;-76
2022/03/01 02:52:40;;;;;;;9.32;3.42;;;;;;;1.12;53.81;100680.91;4449550;32;34497;-76
2022/03/01 02:55:09;;;;;;;6.70;3.42;;;;;;;0.65;55.37;100681.09;4441233;32;33534;-76
2022/03/01 02:57:39;;;;;;;5.53;3.30;;;;;;;0.51;55.07;100677.84;4428780;32;33904;-76
2022/03/01 03:00:08;;;;;;;9.55;3.87;;;;;;;1.08;53.56;100673.00;4454983;32;35059;-76
2022/03/01 03:02:36;;;;;;;5.45;3.20;;;;;;;1.23;53.23;100677.97;4459372;32;34526;-76
2022/03/01 03:05:06;;;;;;;6.50;3.80;;;;;;;1.21;53.15;100677.91;4456021;32;33572;-76
2022/03/01 03:07:34;;;;;;;5.22;3.25;;;;;;;1.58;52.41;100669.41;4464630;32;34015;-76
2022/03/01 03:10:04;;;;;;;7.20;4.20;;;;;;;1.28;52.48;100672.25;4455206;32;34781;-76
2022/03/01 03:12:32;;;;;;;5.45;3.30;;;;;;;1.72;51.56;100679.44;4440866;32;34519;-76
2022/03/01 03:15:02;;;;;;;6.95;3.65;;;;;;;1.56;51.93;100678.72;4455170;32;34328;-81
2022/03/01 03:17:30;;;;;;;5.78;3.00;;;;;;;1.90;50.94;100680.28;4458375;32;33896;-77
2022/03/01 03:19:58;;;;;;;6.18;3.53;;;;;;;1.92;51.07;100673.50;4457279;32;34101;-76
2022/03/01 03:22:26;;;;;;;6.28;3.67;;;;;;;1.56;52.34;100677.84;4443964;32;34455;-76
2022/03/01 03:24:55;;;;;;;7.95;3.58;;;;;;;1.37;51.98;100674.37;4468790;32;33391;-77
2022/03/01 03:27:24;;;;;;;5.78;3.00;;;;;;;1.90;51.14;100678.56;4456756;32;34640;-85
2022/03/01 03:29:52;;;;;;;9.07;3.55;;;;;;;1.47;51.47;100668.91;4466112;32;34766;-76
2022/03/01 03:32:20;;;;;;;11.38;5.65;;;;;;;1.89;50.54;100678.53;4454433;32;35179;-85
2022/03/01 03:34:49;;;;;;;10.15;4.45;;;;;;;1.27;52.36;100675.66;4456655;32;33455;-76
2022/03/01 03:37:17;;;;;;;11.23;4.40;;;;;;;1.84;50.91;100678.31;4454115;32;33937;-76
2022/03/01 03:39:45;;;;;;;6.22;3.12;;;;;;;1.30;51.62;100680.91;4455968;32;35064;-76
2022/03/01 03:42:12;;;;;;;6.22;3.10;;;;;;;1.41;51.52;100693.38;4456464;32;34438;-76
2022/03/01 03:44:41;;;;;;;11.18;3.95;;;;;;;1.56;51.61;100685.53;4441167;32;34190;-76
2022/03/01 03:47:09;;;;;;;7.72;4.05;;;;;;;0.69;52.79;100683.00;4454942;32;33705;-76
2022/03/01 03:49:38;;;;;;;7.07;3.85;;;;;;;0.96;53.07;100678.41;4454979;32;35968;-76
2022/03/01 03:52:07;;;;;;;5.30;3.58;;;;;;;0.55;53.27;100683.22;4470297;32;35176;-76
2022/03/01 03:54:34;;;;;;;6.22;3.45;;;;;;;1.53;50.94;100673.44;4440402;32;33675;-76
2022/03/01 03:57:08;;;;;;;6.43;2.90;;;;;;;0.40;54.05;100679.84;4440664;32;34747;-77
2022/03/01 03:59:38;;;;;;;6.50;4.00;;;;;;;0.12;55.80;100688.66;4441140;32;34858;-76
2022/03/01 04:02:06;;;;;;;8.10;3.58;;;;;;;0.82;53.67;100675.16;4456240;32;35175;-75
2022/03/01 04:04:35;;;;;;;9.52;3.97;;;;;;;1.31;52.25;100674.97;4455181;32;33646;-75
2022/03/01 04:07:04;;;;;;;6.30;2.92;;;;;;;0.85;53.29;100680.44;4440842;32;34817;-76
2022/03/01 04:09:32;;;;;;;6.07;3.75;;;;;;;1.17;52.67;100683.69;4464305;32;35784;-76
2022/03/01 04:12:00;;;;;;;7.62;3.37;;;;;;;1.14;51.88;100675.84;4453742;32;34415;-76
2022/03/01 04:14:28;;;;;;;6.20;3.22;;;;;;;0.94;53.03;100680.00;4453677;32;33577;-76
2022/03/01 04:16:56;;;;;;;9.32;3.28;;;;;;;1.21;52.32;100685.59;4469448;32;34182;-76
2022/03/01 04:19:24;;;;;;;7.18;3.12;;;;;;;1.24;52.37;100679.75;4470072;32;34945;-76
2022/03/01 04:21:52;;;;;;;7.18;3.45;;;;;;;1.67;51.53;100676.66;4468833;32;34434;-76
2022/03/01 04:24:20;;;;;;;4.95;3.00;;;;;;;1.41;51.61;100675.41;4470069;32;33586;-77
2022/03/01 04:26:48;;;;;;;4.10;2.87;;;;;;;2.01;50.20;100673.94;4468883;32;33482;-76
2022/03/01 04:29:16;;;;;;;5.97;2.78;;;;;;;0.97;51.88;100674.13;4460595;32;35207;-81
2022/03/01 04:31:44;;;;;;;7.05;3.45;;;;;;;1.60;50.78;100675.47;4467654;32;35315;-77
2022/03/01 04:34:12;;;;;;;6.75;3.20;;;;;;;1.52;51.07;100666.56;4470057;32;33652;-76
2022/03/01 04:36:41;;;;;;;3.83;2.40;;;;;;;1.48;51.45;100680.94;4458192;32;34615;-76
2022/03/01 04:39:08;;;;;;;4.85;3.17;;;;;;;1.23;51.74;100673.72;4454491;32;35793;-76
2022/03/01 04:41:37;;;;;;;5.03;3.25;;;;;;;0.72;52.60;100685.75;4440071;32;35046;-84
2022/03/01 04:44:07;;;;;;;7.47;2.87;;;;;;;1.39;51.61;100679.59;4454489;32;33386;-82
2022/03/01 04:46:35;;;;;;;4.55;2.67;;;;;;;1.19;51.80;100687.22;4453871;32;34099;-84
2022/03/01 04:49:03;;;;;;;5.65;2.58;;;;;;;1.28;51.69;100677.41;4454308;32;34954;-84
2022/03/01 04:51:32;;;;;;;5.25;2.75;;;;;;;1.30;51.32;100682.59;4453833;32;34294;-84
2022/03/01 04:54:00;;;;;;;3.28;2.47;;;;;;;1.06;51.69;100689.97;4454114;32;33739;-84
2022/03/01 04:56:28;;;;;;;5.15;2.62;;;;;;;0.57;53.11;100688.41;4439957;32;34046;-77
2022/03/01 04:58:56;;;;;;;3.75;2.28;;;;;;;1.35;51.34;100677.72;4453530;32;35019;-76
2022/03/01 05:01:24;;;;;;;4.40;2.40;;;;;;;1.09;52.25;100679.88;4439255;32;34498;-76
2022/03/01 05:03:53;;;;;;;3.75;2.37;;;;;;;1.10;51.66;100684.22;4454095;32;33523;-77
2022/03/01 05:06:21;;;;;;;3.70;2.72;;;;;;;1.15;51.49;100675.06;4453482;32;33922;-77
2022/03/01 05:08:49;;;;;;;4.28;2.62;;;;;;;1.33;51.15;100672.50;4454042;32;35814;-76
2022/03/01 05:11:17;;;;;;;3.67;2.62;;;;;;;1.29;51.18;100668.91;4439659;32;34404;-76
2022/03/01 05:13:45;;;;;;;8.48;2.78;;;;;;;1.06;51.33;100679.72;4427577;32;33421;-76
2022/03/01 05:16:14;;;;;;;5.50;3.28;;;;;;;0.80;52.26;100671.63;4453147;32;33886;-76
2022/03/01 05:18:42;;;;;;;6.70;2.80;;;;;;;1.25;51.14;100673.81;4452863;32;35054;-75
2022/03/01 05:21:10;;;;;;;5.43;2.37;;;;;;;0.49;52.77;100672.62;4453315;32;34399;-75
2022/03/01 05:23:38;;;;;;;4.50;2.25;;;;;;;1.47;50.39;100675.72;4453766;32;33491;-75
2022/03/01 05:26:11;;;;;;;4.43;2.72;;;;;;;1.14;50.75;100671.59;4461309;32;33920;-75
2022/03/01 05:28:40;;;;;;;4.53;2.80;;;;;;;0.80;52.01;100670.75;4470716;32;35861;-75
2022/03/01 05:31:08;;;;;;;3.53;2.55;;;;;;;1.48;50.56;100670.66;4449031;32;35240;-75
2022/03/01 05:33:36;;;;;;;5.95;2.85;;;;;;;1.27;50.83;100673.09;4444201;32;33412;-76
2022/03/01 05:36:04;;;;;;;4.93;2.97;;;;;;;1.46;50.20;100671.37;4454905;32;34396;-77
2022/03/01 05:38:34;;;;;;;5.78;2.87;;;;;;;1.97;49.09;100671.16;4455481;32;34941;-75
2022/03/01 05:41:04;;;;;;;3.62;2.37;;;;;;;1.66;50.01;100668.06;4454987;32;35203;-78
2022/03/01 05:43:32;;;;;;;7.15;3.03;;;;;;;1.88;49.55;100676.75;4454252;32;33619;-79
2022/03/01 05:46:01;;;;;;;5.15;2.80;;;;;;;1.81;49.59;100685.00;4458863;32;33952;-80
2022/03/01 05:48:29;;;;;;;4.18;2.90;;;;;;;1.65;50.57;100666.31;4470244;32;35023;-80
2022/03/01 05:50:57;;;;;;;6.10;3.25;;;;;;;1.27;51.13;100672.19;4469784;32;34351;-77
2022/03/01 05:53:25;;;;;;;5.07;2.55;;;;;;;1.84;49.03;100677.44;4447628;32;34162;-81
2022/03/01 05:55:53;;;;;;;4.62;2.60;;;;;;;0.74;52.60;100686.69;4468891;32;33983;-78
2022/03/01 05:58:21;;;;;;;4.60;2.85;;;;;;;0.65;53.33;100683.66;4469411;32;35201;-81
2022/03/01 06:00:49;;;;;;;6.68;2.90;;;;;;;1.47;52.04;100683.41;4470350;32;34635;-82
2022/03/01 06:03:17;;;;;;;3.12;2.12;;;;;;;2.13;49.48;100689.03;4470347;32;33489;-81
2022/03/01 06:05:46;;;;;;;5.95;2.92;;;;;;;1.89;50.70;100684.53;4470689;32;34630;-82
2022/03/01 06:08:14;;;;;;;7.00;2.87;;;;;;;2.70;48.34;100683.81;4470319;32;35866;-81
2022/03/01 06:10:42;;;;;;;3.95;2.50;;;;;;;3.74;45.71;100692.31;4451309;32;35286;-81
2022/03/01 06:13:10;;;;;;;4.28;2.30;;;;;;;3.26;47.64;100688.66;4454641;32;33472;-80
2022/03/01 06:15:38;;;;;;;6.90;2.60;;;;;;;3.71;46.11;100692.19;4455144;32;34205;-80
2022/03/01 06:18:07;;;;;;;8.02;2.55;;;;;;;4.88;43.13;100695.53;4454664;32;35221;-80
2022/03/01 06:20:35;;;;;;;5.47;2.95;;;;;;;4.98;42.88;100692.47;4454878;32;34190;-79
2022/03/01 06:23:03;;;;;;;248.18;84.43;;;;;;;6.32;39.21;100687.97;4454943;32;34292;-79
2022/03/01 06:25:32;;;;;;;182.90;84.55;;;;;;;6.72;38.66;100681.28;4440858;32;34792;-80
2022/03/01 06:27:59;;;;;;;54.17;30.55;;;;;;;7.36;37.55;100688.09;4440158;32;35009;-78
2022/03/01 06:30:27;;;;;;;11.30;7.78;;;;;;;6.05;39.18;100684.66;4454607;32;34299;-83
2022/03/01 06:32:56;;;;;;;6.12;3.53;;;;;;;6.55;39.20;100676.56;4454255;32;33782;-76
2022/03/01 06:35:24;;;;;;;5.00;2.62;;;;;;;6.11;39.67;100676.19;4454862;32;34556;-77
2022/03/01 06:37:52;;;;;;;3.42;2.22;;;;;;;6.82;37.64;100678.13;4455231;32;34490;-76
2022/03/01 06:40:22;;;;;;;5.40;3.12;;;;;;;6.81;38.18;100679.84;4454236;32;34332;-76
2022/03/01 06:42:50;;;;;;;8.10;3.03;;;;;;;5.69;40.61;100689.56;4452498;32;33151;-76
2022/03/01 06:45:20;;;;;;;5.90;2.85;;;;;;;5.91;40.06;100690.19;4454134;32;34052;-77
2022/03/01 06:47:49;;;;;;;7.15;2.55;;;;;;;4.97;41.62;100685.53;4441161;32;36145;-76
2022/03/01 06:50:17;;;;;;;5.70;2.90;;;;;;;4.95;42.45;100684.59;4463667;32;35167;-76
2022/03/01 06:52:45;;;;;;;4.70;3.35;;;;;;;5.55;41.20;100677.91;4443894;32;33545;-76
2022/03/01 06:55:14;;;;;;;4.65;3.10;;;;;;;4.81;42.90;100684.13;4470062;32;34772;-76
2022/03/01 06:57:43;;;;;;;5.70;2.75;;;;;;;6.87;39.61;100684.28;4458327;32;280561;-76
2022/03/01 07:00:12;;;;;;;5.50;2.90;;;;;;;7.34;38.57;100679.44;4440839;32;35223;-77
2022/03/01 07:02:41;;;;;;;5.62;2.85;;;;;;;6.92;38.19;100672.34;4454512;32;34270;-76
2022/03/01 07:05:12;;;;;;;5.37;2.40;;;;;;;6.55;38.78;100670.50;4454594;32;33794;-76
2022/03/01 07:07:41;;;;;;;7.07;3.30;;;;;;;6.33;39.41;100679.38;4441004;32;35768;-76
2022/03/01 07:10:12;;;;;;;22.77;15.02;;;;;;;6.97;38.38;100673.34;4454558;32;34975;-77
2022/03/01 07:12:42;;;;;;;9.02;5.15;;;;;;;5.23;41.29;100672.59;4440679;32;33653;-76
2022/03/01 07:15:10;;;;;;;7.00;4.35;;;;;;;6.18;39.87;100666.91;4454582;32;34619;-76
2022/03/01 07:17:45;;;;;;;6.25;2.80;;;;;;;5.58;41.74;100659.94;4454474;32;34932;-76
2022/03/01 07:20:13;;;;;;;5.78;3.22;;;;;;;5.48;41.08;100662.22;4440374;32;33936;-78
2022/03/01 07:22:42;;;;;;;6.68;2.60;;;;;;;7.31;37.35;100660.34;4428165;32;33611;-82
2022/03/01 07:25:11;;;;;;;4.32;2.28;;;;;;;6.49;37.98;100649.63;4447575;32;34174;-77
2022/03/01 07:27:50;;;;;;;4.03;1.92;;;;;;;7.14;37.08;100657.34;4442058;32;35050;-76
2022/03/01 07:30:19;;;;;;;4.97;3.20;;;;;;;7.13;36.84;100655.56;4455563;32;35357;-82
2022/03/01 07:32:48;;;;;;;3.25;2.20;;;;;;;7.09;37.65;100648.56;4461119;32;33205;-78
2022/03/01 07:35:16;;;;;;;3.97;2.53;;;;;;;7.46;36.25;100652.91;4443812;32;33950;-77
2022/03/01 07:37:45;;;;;;;4.37;3.78;;;;;;;7.09;36.50;100643.41;4468413;32;35299;-78
2022/03/01 07:40:17;;;;;;;4.90;2.58;;;;;;;6.76;37.06;100640.00;4457502;32;35147;-78
2022/03/01 07:42:48;;;;;;;3.78;2.42;;;;;;;6.84;37.37;100650.56;4454075;32;33999;-78
2022/03/01 07:45:16;;;;;;;5.35;3.58;;;;;;;6.63;37.08;100646.56;4446738;32;33799;-78
2022/03/01 07:47:44;;;;;;;3.75;2.22;;;;;;;6.04;38.96;100651.00;4454121;32;35134;-79
2022/03/01 07:50:13;;;;;;;5.85;2.47;;;;;;;6.93;37.15;100640.41;4441586;32;34468;-78
2022/03/01 07:52:41;;;;;;;3.75;2.85;;;;;;;6.75;36.99;100642.56;4470316;32;33698;-79
2022/03/01 07:55:09;;;;;;;5.87;3.42;;;;;;;7.24;36.29;100643.78;4452791;32;33997;-79
2022/03/01 07:57:37;;;;;;;6.85;5.00;;;;;;;7.46;35.55;100649.44;4454852;32;35031;-78
2022/03/01 08:00:09;;;;;;;7.35;3.30;;;;;;;7.69;36.63;100645.66;4453997;32;34971;-78
2022/03/01 08:02:41;;;;;;;2.90;2.10;;;;;;;7.46;36.46;100639.09;4453980;32;33412;-86
2022/03/01 08:05:10;;;;;;;3.05;2.10;;;;;;;7.47;35.54;100651.22;4442612;32;34010;-77
2022/03/01 08:07:57;;;;;;;3.92;2.33;;;;;;;8.20;35.81;100651.03;4457067;32;35886;-78
2022/03/01 08:10:26;;;;;;;4.97;3.08;;;;;;;8.28;32.70;100628.72;4440595;32;34407;-78
2022/03/01 08:12:56;;;;;;;1.87;1.55;;;;;;;8.05;34.16;100636.91;4454900;32;33656;-85
2022/03/01 08:15:26;;;;;;;3.75;2.15;;;;;;;8.10;33.65;100644.78;4439990;32;34770;-86
2022/03/01 08:17:56;;;;;;;2.40;1.80;;;;;;;8.45;33.76;100637.75;4454681;32;34758;-86
2022/03/01 08:20:24;;;;;;;4.22;2.33;;;;;;;8.28;33.69;100649.47;4440237;32;35195;-84
2022/03/01 08:22:52;;;;;;;2.45;1.85;;;;;;;8.32;34.15;100643.50;4454514;32;33477;-83
2022/03/01 08:25:21;;;;;;;2.87;2.50;;;;;;;8.44;33.67;100651.53;4448865;32;33918;-86
2022/03/01 08:27:49;;;;;;;3.10;1.52;;;;;;;8.28;33.19;100647.75;4470256;32;35044;-89
2022/03/01 08:30:17;;;;;;;146.55;62.92;;;;;;;8.83;31.65;100645.31;4454957;32;35236;-80
2022/03/01 08:32:46;;;;;;;5.35;3.28;;;;;;;8.83;32.18;100650.50;4466624;32;33111;-79
2022/03/01 08:35:13;;;;;;;28.27;21.20;;;;;;;8.67;31.78;100643.31;4453936;32;33937;-79
2022/03/01 08:37:42;;;;;;;4.53;2.65;;;;;;;8.88;33.17;100651.47;4466179;32;35016;-85
2022/03/01 08:40:12;;;;;;;9.60;6.15;;;;;;;8.84;31.96;100649.69;4442744;32;34508;-87
2022/03/01 08:42:39;;;;;;;3.65;2.30;;;;;;;9.22;32.04;100649.44;4453831;32;33330;-80
2022/03/01 08:45:08;;;;;;;2.85;1.80;;;;;;;9.81;30.73;100632.06;4453881;32;34841;-80
2022/03/01 08:47:40;;;;;;;3.47;1.90;;;;;;;9.70;31.62;100625.84;4441163;32;35075;-79
2022/03/01 08:50:08;;;;;;;4.55;2.42;;;;;;;9.73;30.23;100631.97;4439842;32;33945;-81
2022/03/01 08:52:57;;;;;;;6.03;2.25;;;;;;;9.34;31.59;100627.97;4442821;32;33510;-79
2022/03/01 08:55:26;;;;;;;2.42;1.85;;;;;;;9.16;32.32;100625.97;4453775;32;33925;-79
2022/03/01 08:57:54;;;;;;;5.87;3.22;;;;;;;8.94;31.56;100622.12;4458784;32;35026;-80
2022/03/01 09:00:23;;;;;;;5.95;2.97;;;;;;;9.65;31.04;100626.69;4458697;32;34443;-78
2022/03/01 09:02:51;;;;;;;4.40;2.42;;;;;;;8.82;32.45;100627.13;4453159;32;33654;-86
2022/03/01 09:05:19;;;;;;;3.37;2.08;;;;;;;9.37;31.61;100616.72;4426997;32;32973;-80
2022/03/01 09:07:47;;;;;;;2.75;1.92;;;;;;;9.98;31.19;100617.53;4454060;32;35702;-79
2022/03/01 09:10:21;;;;;;;7.00;2.70;;;;;;;10.22;28.94;100610.91;4454397;32;35287;-79
2022/03/01 09:12:52;;;;;;;10.45;2.85;;;;;;;11.85;27.56;100619.16;4456649;32;33436;-86
2022/03/01 09:15:21;;;;;;;5.35;2.40;;;;;;;12.37;24.88;100615.88;4452799;32;34533;-86
2022/03/01 09:17:51;;;;;;;2.97;1.92;;;;;;;12.20;25.04;100614.09;4439545;32;35112;-86
2022/03/01 09:20:19;;;;;;;3.00;2.05;;;;;;;11.73;25.12;100614.75;4439422;32;34503;-78
2022/03/01 09:22:47;;;;;;;4.90;2.45;;;;;;;10.75;26.67;100613.19;4440150;32;33572;-79
2022/03/01 09:25:16;;;;;;;2.97;2.00;;;;;;;10.49;26.95;100610.34;4453307;32;35035;-79
2022/03/01 09:27:43;;;;;;;7.65;2.33;;;;;;;10.16;27.27;100610.81;4439932;32;35974;-79
2022/03/01 09:30:12;;;;;;;4.93;3.05;;;;;;;11.45;26.29;100614.56;4453546;32;35160;-80
2022/03/01 09:32:40;;;;;;;8.95;3.28;;;;;;;11.23;27.82;100604.88;4455570;32;33447;-81
2022/03/01 09:35:08;;;;;;;4.47;2.58;;;;;;;11.34;27.40;100603.22;4439506;32;34775;-79
2022/03/01 09:37:37;;;;;;;4.75;2.22;;;;;;;12.76;25.58;100596.78;4454986;32;33179;-79
2022/03/01 09:40:06;;;;;;;3.78;1.77;;;;;;;12.86;24.73;100592.41;4455452;32;35278;-79
2022/03/01 09:42:35;;;;;;;4.30;2.33;;;;;;;12.83;24.26;100590.69;4444244;32;31674;-79
2022/03/01 09:45:03;;;;;;;4.25;2.47;;;;;;;14.15;23.00;100570.28;4455462;32;34768;-81
2022/03/01 09:47:35;;;;;;;4.07;2.17;;;;;;;12.46;25.67;100584.56;4453386;32;35980;-80
2022/03/01 09:50:03;;;;;;;5.37;3.10;;;;;;;11.67;26.79;100580.81;4453609;32;34433;-80
2022/03/01 09:52:31;;;;;;;3.37;2.17;;;;;;;11.78;26.56;100581.72;4464589;32;33737;-85
2022/03/01 09:55:00;;;;;;;4.22;2.12;;;;;;;12.74;25.66;100579.34;4453431;32;33992;-86
2022/03/01 09:57:27;;;;;;;3.53;1.77;;;;;;;13.62;22.64;100567.03;4452988;32;34990;-80
2022/03/01 09:59:55;;;;;;;3.03;1.52;;;;;;;13.05;24.50;100568.00;4453231;32;34433;-80
2022/03/01 10:02:38;;;;;;;4.18;1.80;;;;;;;14.36;22.44;100556.19;4452959;32;34139;-80
2022/03/01 10:05:09;;;;;;;3.58;2.35;;;;;;;15.29;22.43;100561.56;4453525;32;33942;-79
2022/03/01 10:07:42;;;;;;;3.50;1.77;;;;;;;15.29;21.48;100557.16;4467163;32;34901;-81
2022/03/01 10:10:19;;;;;;;2.80;1.60;;;;;;;14.00;22.18;100550.31;4457796;32;34530;-80
2022/03/01 10:12:54;;;;;;;;;;;;;;;15.68;20.04;100538.34;4468581;32;33263;-80
2022/03/01 10:15:29;;;;;;;4.43;1.98;;;;;;;14.90;21.01;100538.31;4457276;32;34172;-87
2022/03/01 10:17:57;;;;;;;4.07;1.92;;;;;;;14.84;21.56;100543.62;4441780;32;35387;-80
2022/03/01 10:20:26;;;;;;;5.18;1.95;;;;;;;15.34;20.43;100544.88;4441410;32;34457;-80
2022/03/01 10:22:57;;;;;;;6.03;1.58;;;;;;;15.61;21.11;100536.69;4455565;32;31659;-85
2022/03/01 10:25:26;;;;;;;3.92;2.00;;;;;;;13.85;23.38;100532.91;4455519;32;33130;-81
2022/03/01 10:27:55;;;;;;;4.50;1.77;;;;;;;15.42;21.80;100526.41;4441949;32;36246;-80
2022/03/01 10:30:26;;;;;;;3.10;1.83;;;;;;;16.07;20.97;100520.34;4428934;32;34331;-80
2022/03/01 10:33:05;;;;;;;4.30;2.00;;;;;;;16.21;20.25;100521.00;4442013;32;31529;-80
2022/03/01 10:35:33;;;;;;;4.32;1.80;;;;;;;15.58;20.24;100513.94;4454867;32;33933;-80
2022/03/01 10:38:03;;;;;;;3.97;1.73;;;;;;;14.36;23.56;100522.13;4441498;32;34733;-81
2022/03/01 10:40:32;;;;;;;4.05;1.92;;;;;;;13.55;22.83;100513.84;4441364;32;35086;-81
2022/03/01 10:43:02;;;;;;;4.70;2.17;;;;;;;15.14;21.08;100515.34;4470464;32;31954;-84
2022/03/01 10:45:36;;;;;;;5.55;1.80;;;;;;;14.83;21.65;100514.78;4458262;32;33932;-87
2022/03/01 10:48:08;;;;;;;3.15;1.80;;;;;;;13.93;22.93;100498.84;4455387;32;35115;-80
2022/03/01 10:50:38;;;;;;;4.37;1.65;;;;;;;14.65;21.04;100505.31;4441143;32;35216;-80
2022/03/01 10:53:07;;;;;;;2.83;1.95;;;;;;;15.06;22.15;100491.81;4455251;32;33256;-80
2022/03/01 10:55:38;;;;;;;4.30;1.92;;;;;;;15.04;21.28;100485.72;4455136;32;34643;-81
2022/03/01 10:58:12;;;;;;;;;;;;;;;15.61;19.46;100484.19;4442597;32;35749;-83
2022/03/01 11:00:40;;;;;;;3.08;1.65;;;;;;;16.10;19.81;100473.00;4428007;32;35294;-87
2022/03/01 11:03:09;;;;;;;4.25;1.55;;;;;;;14.08;21.97;100472.53;4455329;32;32968;-80
2022/03/01 11:05:38;;;;;;;2.97;1.62;;;;;;;15.90;20.02;100461.06;4440916;32;33883;-80
2022/03/01 11:08:35;;;;;;;2.55;1.62;;;;;;;15.73;20.14;100463.87;4455253;32;35912;-80
2022/03/01 11:11:06;;;;;;;2.95;1.50;;;;;;;14.80;20.78;100465.84;4456708;32;34344;-80
2022/03/01 11:13:43;;;;;;;2.95;1.65;;;;;;;14.31;20.45;100458.41;4456862;32;33546;-81
2022/03/01 11:16:27;;;;;;;5.78;1.98;;;;;;;15.04;20.25;100456.00;4467043;32;34676;-80
2022/03/01 11:19:15;;;;;;;3.53;1.85;;;;;;;15.23;19.52;100457.53;4456896;32;36126;-81
2022/03/01 11:21:49;;;;;;;3.58;1.80;;;;;;;15.79;17.34;100441.94;4454698;32;35058;-80
2022/03/01 11:24:18;;;;;;;3.45;2.05;;;;;;;16.13;18.66;100436.19;4441156;32;34288;-82
2022/03/01 11:26:47;;;;;;;4.12;1.80;;;;;;;15.76;18.37;100427.97;4426172;32;33949;-88
2022/03/01 11:29:17;;;;;;;5.65;2.25;;;;;;;16.46;16.84;100429.47;4428091;32;33856;-87
2022/03/01 11:31:58;;;;;;;2.50;1.30;;;;;;;16.47;17.48;100420.69;4446374;32;35332;-86
2022/03/01 11:34:26;;;;;;;3.85;1.80;;;;;;;16.72;17.31;100415.00;4434797;32;34527;-86
2022/03/01 11:36:56;;;;;;;2.67;1.87;;;;;;;17.32;16.13;100420.88;4453844;32;34041;-87
2022/03/01 11:39:34;;;;;;;3.53;1.75;;;;;;;16.84;16.24;100404.28;4440980;32;35785;-84
2022/03/01 11:42:15;;;;;;;1.77;1.40;;;;;;;17.70;16.07;100403.34;4440668;32;34546;-88